sensor_id;sensor_type;location;lat;lon;timestamp;P1;durP1;ratioP1;P2;durP2;ratioP2
28447;SDS011;15675;52.870;-1.416;2023-06-14T00:00:19;8.68;;;3.20;;
28447;SDS011;15675;52.870;-1.416;2023-06-14T00:02:46;9.75;;;3.20;;
28447;SDS011;15675;52.870;-1.416;2023-06-14T00:05:11;10.38;;;3.03;;
28447;SDS011;15675;52.870;-1.416;2023-06-14T00:07:38;5.20;;;3.20;;
28447;SDS011;15675;52.870;-1.416;2023-06-14T00:10:07;9.40;;;2.92;;
28447;SDS011;15675;52.870;-1.416;2023-06-14T00:12:34;7.93;;;3.22;;
28447;SDS011;15675;52.870;-1.416;2023-06-14T00:15:00;8.50;;;3.45;;
28447;SDS011;15675;52.870;-1.416;2023-06-14T00:17:28;6.85;;;2.53;;
28447;SDS011;15675;52.870;-1.416;2023-06-14T00:19:57;6.15;;;3.20;;
28447;SDS011;15675;52.870;-1.416;2023-06-14T00:22:23;5.97;;;2.90;;
28447;SDS011;15675;52.870;-1.416;2023-06-14T00:24:50;11.07;;;3.58;;
28447;SDS011;15675;52.870;-1.416;2023-06-14T00:27:16;8.40;;;3.00;;
28447;SDS011;15675;52.870;-1.416;2023-06-14T00:29:41;6.95;;;2.60;;
28447;SDS011;15675;52.870;-1.416;2023-06-14T00:32:07;6.15;;;3.00;;
28447;SDS011;15675;52.870;-1.416;2023-06-14T00:34:33;6.85;;;3.38;;
28447;SDS011;15675;52.870;-1.416;2023-06-14T00:36:59;6.43;;;2.97;;
28447;SDS011;15675;52.870;-1.416;2023-06-14T00:39:24;10.45;;;3.83;;
28447;SDS011;15675;52.870;-1.416;2023-06-14T00:41:50;10.88;;;3.47;;
28447;SDS011;15675;52.870;-1.416;2023-06-14T00:44:16;8.02;;;3.13;;
28447;SDS011;15675;52.870;-1.416;2023-06-14T00:46:42;9.65;;;2.85;;
28447;SDS011;15675;52.870;-1.416;2023-06-14T00:49:09;9.05;;;3.90;;
28447;SDS011;15675;52.870;-1.416;2023-06-14T00:51:35;7.03;;;3.22;;
28447;SDS011;15675;52.870;-1.416;2023-06-14T00:54:02;6.78;;;3.08;;
28447;SDS011;15675;52.870;-1.416;2023-06-14T00:56:28;12.57;;;3.78;;
28447;SDS011;15675;52.870;-1.416;2023-06-14T00:58:54;7.95;;;3.10;;
28447;SDS011;15675;52.870;-1.416;2023-06-14T01:01:21;7.10;;;3.10;;
28447;SDS011;15675;52.870;-1.416;2023-06-14T01:03:47;6.88;;;3.20;;
28447;SDS011;15675;52.870;-1.416;2023-06-14T01:11:54;9.68;;;2.95;;
28447;SDS011;15675;52.870;-1.416;2023-06-14T01:14:21;10.50;;;3.33;;
28447;SDS011;15675;52.870;-1.416;2023-06-14T01:16:48;6.75;;;3.60;;
28447;SDS011;15675;52.870;-1.416;2023-06-14T01:19:18;6.45;;;2.67;;
28447;SDS011;15675;52.870;-1.416;2023-06-14T01:21:48;8.98;;;3.67;;
28447;SDS011;15675;52.870;-1.416;2023-06-14T01:24:16;7.47;;;3.58;;
28447;SDS011;15675;52.870;-1.416;2023-06-14T01:26:44;8.38;;;3.13;;
28447;SDS011;15675;52.870;-1.416;2023-06-14T01:29:12;7.03;;;3.40;;
28447;SDS011;15675;52.870;-1.416;2023-06-14T01:31:42;6.88;;;3.28;;
28447;SDS011;15675;52.870;-1.416;2023-06-14T01:34:08;5.30;;;3.10;;
28447;SDS011;15675;52.870;-1.416;2023-06-14T01:36:35;5.85;;;2.72;;
28447;SDS011;15675;52.870;-1.416;2023-06-14T01:39:03;7.07;;;2.95;;
28447;SDS011;15675;52.870;-1.416;2023-06-14T01:41:30;6.75;;;3.25;;
28447;SDS011;15675;52.870;-1.416;2023-06-14T01:43:56;5.97;;;3.08;;
28447;SDS011;15675;52.870;-1.416;2023-06-14T01:46:23;6.38;;;3.22;;
28447;SDS011;15675;52.870;-1.416;2023-06-14T01:48:49;6.95;;;3.75;;
28447;SDS011;15675;52.870;-1.416;2023-06-14T01:51:15;5.80;;;3.17;;
28447;SDS011;15675;52.870;-1.416;2023-06-14T01:53:41;7.07;;;3.80;;
28447;SDS011;15675;52.870;-1.416;2023-06-14T01:56:07;9.48;;;4.47;;
28447;SDS011;15675;52.870;-1.416;2023-06-14T01:58:32;7.22;;;4.45;;
28447;SDS011;15675;52.870;-1.416;2023-06-14T02:00:58;9.43;;;3.42;;
28447;SDS011;15675;52.870;-1.416;2023-06-14T02:03:25;12.70;;;3.92;;
28447;SDS011;15675;52.870;-1.416;2023-06-14T02:05:51;10.98;;;3.80;;
28447;SDS011;15675;52.870;-1.416;2023-06-14T02:08:17;5.68;;;3.55;;
28447;SDS011;15675;52.870;-1.416;2023-06-14T02:10:43;7.55;;;3.95;;
28447;SDS011;15675;52.870;-1.416;2023-06-14T02:13:08;8.43;;;3.42;;
28447;SDS011;15675;52.870;-1.416;2023-06-14T02:15:34;11.48;;;3.92;;
28447;SDS011;15675;52.870;-1.416;2023-06-14T02:18:01;9.55;;;3.90;;
28447;SDS011;15675;52.870;-1.416;2023-06-14T02:20:28;5.78;;;3.78;;
28447;SDS011;15675;52.870;-1.416;2023-06-14T02:22:54;6.68;;;3.80;;
28447;SDS011;15675;52.870;-1.416;2023-06-14T02:25:20;6.65;;;3.72;;
28447;SDS011;15675;52.870;-1.416;2023-06-14T02:27:45;8.73;;;3.58;;
28447;SDS011;15675;52.870;-1.416;2023-06-14T02:30:11;6.03;;;3.60;;
28447;SDS011;15675;52.870;-1.416;2023-06-14T02:32:37;10.32;;;4.32;;
28447;SDS011;15675;52.870;-1.416;2023-06-14T02:35:03;9.80;;;3.70;;
28447;SDS011;15675;52.870;-1.416;2023-06-14T02:37:29;11.68;;;3.67;;
28447;SDS011;15675;52.870;-1.416;2023-06-14T02:39:55;5.47;;;3.72;;
28447;SDS011;15675;52.870;-1.416;2023-06-14T02:42:21;9.43;;;3.88;;
28447;SDS011;15675;52.870;-1.416;2023-06-14T02:44:46;6.88;;;4.20;;
28447;SDS011;15675;52.870;-1.416;2023-06-14T02:47:16;6.10;;;4.00;;
28447;SDS011;15675;52.870;-1.416;2023-06-14T02:49:45;10.32;;;3.90;;
28447;SDS011;15675;52.870;-1.416;2023-06-14T02:52:12;8.30;;;3.88;;
28447;SDS011;15675;52.870;-1.416;2023-06-14T02:54:37;10.82;;;4.20;;
28447;SDS011;15675;52.870;-1.416;2023-06-14T02:57:03;7.47;;;3.97;;
28447;SDS011;15675;52.870;-1.416;2023-06-14T02:59:28;11.93;;;4.50;;
28447;SDS011;15675;52.870;-1.416;2023-06-14T03:01:54;10.27;;;4.28;;
28447;SDS011;15675;52.870;-1.416;2023-06-14T03:04:20;10.27;;;4.03;;
28447;SDS011;15675;52.870;-1.416;2023-06-14T03:06:45;16.38;;;4.70;;
28447;SDS011;15675;52.870;-1.416;2023-06-14T03:09:15;10.63;;;4.68;;
28447;SDS011;15675;52.870;-1.416;2023-06-14T03:11:41;12.07;;;4.88;;
28447;SDS011;15675;52.870;-1.416;2023-06-14T03:14:06;9.25;;;4.10;;
28447;SDS011;15675;52.870;-1.416;2023-06-14T03:16:33;9.35;;;4.15;;
28447;SDS011;15675;52.870;-1.416;2023-06-14T03:18:59;8.88;;;4.50;;
28447;SDS011;15675;52.870;-1.416;2023-06-14T03:21:24;10.88;;;4.65;;
28447;SDS011;15675;52.870;-1.416;2023-06-14T03:23:51;13.02;;;4.72;;
28447;SDS011;15675;52.870;-1.416;2023-06-14T03:26:18;8.32;;;4.10;;
28447;SDS011;15675;52.870;-1.416;2023-06-14T03:28:45;9.10;;;4.15;;
28447;SDS011;15675;52.870;-1.416;2023-06-14T03:31:11;8.02;;;4.07;;
28447;SDS011;15675;52.870;-1.416;2023-06-14T03:33:38;13.32;;;5.18;;
28447;SDS011;15675;52.870;-1.416;2023-06-14T03:36:04;8.48;;;5.22;;
28447;SDS011;15675;52.870;-1.416;2023-06-14T03:38:30;7.63;;;5.22;;
28447;SDS011;15675;52.870;-1.416;2023-06-14T03:40:56;12.85;;;4.85;;
28447;SDS011;15675;52.870;-1.416;2023-06-14T03:43:21;7.82;;;4.53;;
28447;SDS011;15675;52.870;-1.416;2023-06-14T03:45:47;13.88;;;5.90;;
28447;SDS011;15675;52.870;-1.416;2023-06-14T03:48:12;9.40;;;5.20;;
28447;SDS011;15675;52.870;-1.416;2023-06-14T03:50:38;10.88;;;5.30;;
28447;SDS011;15675;52.870;-1.416;2023-06-14T03:53:04;9.95;;;5.75;;
28447;SDS011;15675;52.870;-1.416;2023-06-14T03:55:30;11.02;;;5.25;;
28447;SDS011;15675;52.870;-1.416;2023-06-14T03:57:58;9.68;;;5.05;;
28447;SDS011;15675;52.870;-1.416;2023-06-14T04:00:24;14.02;;;4.95;;
28447;SDS011;15675;52.870;-1.416;2023-06-14T04:02:51;8.05;;;5.38;;
28447;SDS011;15675;52.870;-1.416;2023-06-14T04:05:16;9.85;;;5.22;;
28447;SDS011;15675;52.870;-1.416;2023-06-14T04:07:44;16.38;;;5.22;;
28447;SDS011;15675;52.870;-1.416;2023-06-14T04:10:14;10.55;;;5.80;;
28447;SDS011;15675;52.870;-1.416;2023-06-14T04:12:40;15.48;;;5.93;;
28447;SDS011;15675;52.870;-1.416;2023-06-14T04:15:06;11.75;;;5.43;;
28447;SDS011;15675;52.870;-1.416;2023-06-14T04:17:33;11.05;;;5.15;;
28447;SDS011;15675;52.870;-1.416;2023-06-14T04:19:59;14.98;;;5.47;;
28447;SDS011;15675;52.870;-1.416;2023-06-14T04:22:26;10.13;;;5.53;;
28447;SDS011;15675;52.870;-1.416;2023-06-14T04:24:55;11.82;;;5.15;;
28447;SDS011;15675;52.870;-1.416;2023-06-14T04:27:25;10.10;;;5.63;;
28447;SDS011;15675;52.870;-1.416;2023-06-14T04:29:52;10.48;;;5.65;;
28447;SDS011;15675;52.870;-1.416;2023-06-14T04:32:25;10.82;;;5.50;;
28447;SDS011;15675;52.870;-1.416;2023-06-14T04:34:57;10.27;;;4.80;;
28447;SDS011;15675;52.870;-1.416;2023-06-14T04:37:24;15.85;;;5.70;;
28447;SDS011;15675;52.870;-1.416;2023-06-14T04:39:54;13.98;;;5.45;;
28447;SDS011;15675;52.870;-1.416;2023-06-14T04:42:21;14.07;;;4.80;;
28447;SDS011;15675;52.870;-1.416;2023-06-14T04:44:51;10.73;;;5.80;;
28447;SDS011;15675;52.870;-1.416;2023-06-14T04:47:20;14.20;;;5.57;;
28447;SDS011;15675;52.870;-1.416;2023-06-14T04:49:46;11.13;;;5.40;;
28447;SDS011;15675;52.870;-1.416;2023-06-14T04:52:12;14.18;;;5.15;;
28447;SDS011;15675;52.870;-1.416;2023-06-14T04:54:39;11.07;;;4.80;;
28447;SDS011;15675;52.870;-1.416;2023-06-14T04:57:07;12.70;;;4.43;;
28447;SDS011;15675;52.870;-1.416;2023-06-14T04:59:33;14.70;;;4.95;;
28447;SDS011;15675;52.870;-1.416;2023-06-14T05:02:00;9.80;;;5.03;;
28447;SDS011;15675;52.870;-1.416;2023-06-14T05:04:26;11.18;;;4.75;;
28447;SDS011;15675;52.870;-1.416;2023-06-14T05:06:53;12.18;;;5.13;;
28447;SDS011;15675;52.870;-1.416;2023-06-14T05:09:19;8.77;;;4.47;;
28447;SDS011;15675;52.870;-1.416;2023-06-14T05:11:46;14.32;;;4.68;;
28447;SDS011;15675;52.870;-1.416;2023-06-14T05:14:13;10.52;;;4.38;;
28447;SDS011;15675;52.870;-1.416;2023-06-14T05:16:39;10.63;;;4.43;;
28447;SDS011;15675;52.870;-1.416;2023-06-14T05:19:05;8.52;;;4.78;;
28447;SDS011;15675;52.870;-1.416;2023-06-14T05:21:31;13.15;;;5.28;;
28447;SDS011;15675;52.870;-1.416;2023-06-14T05:23:58;11.77;;;4.93;;
28447;SDS011;15675;52.870;-1.416;2023-06-14T05:26:24;9.93;;;4.18;;
28447;SDS011;15675;52.870;-1.416;2023-06-14T05:28:56;8.18;;;4.78;;
28447;SDS011;15675;52.870;-1.416;2023-06-14T05:31:23;7.78;;;4.13;;
28447;SDS011;15675;52.870;-1.416;2023-06-14T05:33:49;14.68;;;4.50;;
28447;SDS011;15675;52.870;-1.416;2023-06-14T05:36:15;10.02;;;3.97;;
28447;SDS011;15675;52.870;-1.416;2023-06-14T05:38:41;8.68;;;4.22;;
28447;SDS011;15675;52.870;-1.416;2023-06-14T05:41:06;7.15;;;3.85;;
28447;SDS011;15675;52.870;-1.416;2023-06-14T05:43:32;10.45;;;4.07;;
28447;SDS011;15675;52.870;-1.416;2023-06-14T05:45:57;8.27;;;4.70;;
28447;SDS011;15675;52.870;-1.416;2023-06-14T05:48:23;7.88;;;4.03;;
28447;SDS011;15675;52.870;-1.416;2023-06-14T05:50:48;9.52;;;3.47;;
28447;SDS011;15675;52.870;-1.416;2023-06-14T05:53:14;8.85;;;3.67;;
28447;SDS011;15675;52.870;-1.416;2023-06-14T05:55:39;14.70;;;3.63;;
28447;SDS011;15675;52.870;-1.416;2023-06-14T05:58:05;8.65;;;3.67;;
28447;SDS011;15675;52.870;-1.416;2023-06-14T06:00:31;7.10;;;3.60;;
28447;SDS011;15675;52.870;-1.416;2023-06-14T06:02:56;6.90;;;3.22;;
28447;SDS011;15675;52.870;-1.416;2023-06-14T06:05:26;8.77;;;3.63;;
28447;SDS011;15675;52.870;-1.416;2023-06-14T06:07:52;7.70;;;3.53;;
28447;SDS011;15675;52.870;-1.416;2023-06-14T06:10:17;9.10;;;4.00;;
28447;SDS011;15675;52.870;-1.416;2023-06-14T06:12:43;9.52;;;3.97;;
28447;SDS011;15675;52.870;-1.416;2023-06-14T06:15:08;10.20;;;3.58;;
28447;SDS011;15675;52.870;-1.416;2023-06-14T06:17:37;6.03;;;3.05;;
28447;SDS011;15675;52.870;-1.416;2023-06-14T06:20:03;10.38;;;3.60;;
28447;SDS011;15675;52.870;-1.416;2023-06-14T06:22:31;6.28;;;3.58;;
28447;SDS011;15675;52.870;-1.416;2023-06-14T06:24:57;16.58;;;4.47;;
28447;SDS011;15675;52.870;-1.416;2023-06-14T06:27:22;10.38;;;3.70;;
28447;SDS011;15675;52.870;-1.416;2023-06-14T06:29:48;11.20;;;3.50;;
28447;SDS011;15675;52.870;-1.416;2023-06-14T06:32:14;7.90;;;3.08;;
28447;SDS011;15675;52.870;-1.416;2023-06-14T06:34:40;10.00;;;3.20;;
28447;SDS011;15675;52.870;-1.416;2023-06-14T06:37:06;6.47;;;2.80;;
28447;SDS011;15675;52.870;-1.416;2023-06-14T06:39:32;8.80;;;3.15;;
28447;SDS011;15675;52.870;-1.416;2023-06-14T06:41:58;4.72;;;1.80;;
28447;SDS011;15675;52.870;-1.416;2023-06-14T06:44:23;6.40;;;2.97;;
28447;SDS011;15675;52.870;-1.416;2023-06-14T06:46:49;15.57;;;3.22;;
28447;SDS011;15675;52.870;-1.416;2023-06-14T06:49:15;8.75;;;3.10;;
28447;SDS011;15675;52.870;-1.416;2023-06-14T06:51:41;8.73;;;2.95;;
28447;SDS011;15675;52.870;-1.416;2023-06-14T06:54:08;7.68;;;2.50;;
28447;SDS011;15675;52.870;-1.416;2023-06-14T06:56:34;10.07;;;2.80;;
28447;SDS011;15675;52.870;-1.416;2023-06-14T06:59:00;10.57;;;3.20;;
28447;SDS011;15675;52.870;-1.416;2023-06-14T07:01:26;6.85;;;2.42;;
28447;SDS011;15675;52.870;-1.416;2023-06-14T07:03:57;10.95;;;2.80;;
28447;SDS011;15675;52.870;-1.416;2023-06-14T07:06:22;10.13;;;2.92;;
28447;SDS011;15675;52.870;-1.416;2023-06-14T07:08:52;9.13;;;3.28;;
28447;SDS011;15675;52.870;-1.416;2023-06-14T07:11:17;10.18;;;3.00;;
28447;SDS011;15675;52.870;-1.416;2023-06-14T07:13:43;6.75;;;2.78;;
28447;SDS011;15675;52.870;-1.416;2023-06-14T07:16:08;12.05;;;2.83;;
28447;SDS011;15675;52.870;-1.416;2023-06-14T07:18:34;7.82;;;2.83;;
28447;SDS011;15675;52.870;-1.416;2023-06-14T07:21:01;8.43;;;3.42;;
28447;SDS011;15675;52.870;-1.416;2023-06-14T07:23:27;6.93;;;2.85;;
28447;SDS011;15675;52.870;-1.416;2023-06-14T07:25:53;8.52;;;2.97;;
28447;SDS011;15675;52.870;-1.416;2023-06-14T07:28:18;6.45;;;2.53;;
28447;SDS011;15675;52.870;-1.416;2023-06-14T07:30:44;9.27;;;3.33;;
28447;SDS011;15675;52.870;-1.416;2023-06-14T07:33:09;13.05;;;2.83;;
28447;SDS011;15675;52.870;-1.416;2023-06-14T07:35:37;15.30;;;2.97;;
28447;SDS011;15675;52.870;-1.416;2023-06-14T07:38:02;12.02;;;2.80;;
28447;SDS011;15675;52.870;-1.416;2023-06-14T07:40:28;12.68;;;2.75;;
28447;SDS011;15675;52.870;-1.416;2023-06-14T07:42:53;6.47;;;1.80;;
28447;SDS011;15675;52.870;-1.416;2023-06-14T07:45:20;9.70;;;2.75;;
28447;SDS011;15675;52.870;-1.416;2023-06-14T07:47:45;6.60;;;2.25;;
28447;SDS011;15675;52.870;-1.416;2023-06-14T07:50:11;13.55;;;3.10;;
28447;SDS011;15675;52.870;-1.416;2023-06-14T07:52:37;13.45;;;3.63;;
28447;SDS011;15675;52.870;-1.416;2023-06-14T07:55:03;11.05;;;2.75;;
28447;SDS011;15675;52.870;-1.416;2023-06-14T07:57:29;10.95;;;3.20;;
28447;SDS011;15675;52.870;-1.416;2023-06-14T07:59:55;9.82;;;2.97;;
28447;SDS011;15675;52.870;-1.416;2023-06-14T08:02:20;5.70;;;2.78;;
28447;SDS011;15675;52.870;-1.416;2023-06-14T08:04:46;10.85;;;2.70;;
28447;SDS011;15675;52.870;-1.416;2023-06-14T08:07:13;13.55;;;3.00;;
28447;SDS011;15675;52.870;-1.416;2023-06-14T08:09:39;12.20;;;3.10;;
28447;SDS011;15675;52.870;-1.416;2023-06-14T08:12:05;16.55;;;3.28;;
28447;SDS011;15675;52.870;-1.416;2023-06-14T08:14:39;8.87;;;3.13;;
28447;SDS011;15675;52.870;-1.416;2023-06-14T08:17:05;12.15;;;3.03;;
28447;SDS011;15675;52.870;-1.416;2023-06-14T08:19:30;9.40;;;2.83;;
28447;SDS011;15675;52.870;-1.416;2023-06-14T08:21:56;6.28;;;2.90;;
28447;SDS011;15675;52.870;-1.416;2023-06-14T08:24:22;6.93;;;2.97;;
28447;SDS011;15675;52.870;-1.416;2023-06-14T08:26:55;10.50;;;2.90;;
28447;SDS011;15675;52.870;-1.416;2023-06-14T08:29:21;8.85;;;3.08;;
28447;SDS011;15675;52.870;-1.416;2023-06-14T08:31:47;8.13;;;3.10;;
28447;SDS011;15675;52.870;-1.416;2023-06-14T08:34:13;9.25;;;2.78;;
28447;SDS011;15675;52.870;-1.416;2023-06-14T08:36:38;12.75;;;2.72;;
28447;SDS011;15675;52.870;-1.416;2023-06-14T08:39:04;9.80;;;3.40;;
28447;SDS011;15675;52.870;-1.416;2023-06-14T08:41:29;7.90;;;2.42;;
28447;SDS011;15675;52.870;-1.416;2023-06-14T08:43:56;8.10;;;3.22;;
28447;SDS011;15675;52.870;-1.416;2023-06-14T08:46:22;8.35;;;3.00;;
28447;SDS011;15675;52.870;-1.416;2023-06-14T08:48:52;12.07;;;2.75;;
28447;SDS011;15675;52.870;-1.416;2023-06-14T08:51:22;7.57;;;2.60;;
28447;SDS011;15675;52.870;-1.416;2023-06-14T08:53:52;11.43;;;3.15;;
28447;SDS011;15675;52.870;-1.416;2023-06-14T08:56:26;8.48;;;3.10;;
28447;SDS011;15675;52.870;-1.416;2023-06-14T08:58:53;10.48;;;2.42;;
28447;SDS011;15675;52.870;-1.416;2023-06-14T09:01:22;6.25;;;2.90;;
28447;SDS011;15675;52.870;-1.416;2023-06-14T09:03:50;7.75;;;3.42;;
28447;SDS011;15675;52.870;-1.416;2023-06-14T09:06:16;7.75;;;2.97;;
28447;SDS011;15675;52.870;-1.416;2023-06-14T09:08:44;7.90;;;2.92;;
28447;SDS011;15675;52.870;-1.416;2023-06-14T09:11:11;10.30;;;2.85;;
28447;SDS011;15675;52.870;-1.416;2023-06-14T09:13:41;11.98;;;3.97;;
28447;SDS011;15675;52.870;-1.416;2023-06-14T09:16:07;8.93;;;3.10;;
28447;SDS011;15675;52.870;-1.416;2023-06-14T09:18:37;5.57;;;2.42;;
28447;SDS011;15675;52.870;-1.416;2023-06-14T09:21:07;9.82;;;2.88;;
28447;SDS011;15675;52.870;-1.416;2023-06-14T09:23:35;7.82;;;3.10;;
28447;SDS011;15675;52.870;-1.416;2023-06-14T09:26:06;8.02;;;2.83;;
28447;SDS011;15675;52.870;-1.416;2023-06-14T09:28:45;12.73;;;2.90;;
28447;SDS011;15675;52.870;-1.416;2023-06-14T09:31:12;9.02;;;2.42;;
28447;SDS011;15675;52.870;-1.416;2023-06-14T09:33:46;12.90;;;3.00;;
28447;SDS011;15675;52.870;-1.416;2023-06-14T09:36:23;5.88;;;2.40;;
28447;SDS011;15675;52.870;-1.416;2023-06-14T09:41:34;6.63;;;3.00;;
28447;SDS011;15675;52.870;-1.416;2023-06-14T09:44:02;7.15;;;2.75;;
28447;SDS011;15675;52.870;-1.416;2023-06-14T09:46:29;6.82;;;3.38;;
28447;SDS011;15675;52.870;-1.416;2023-06-14T09:48:55;10.55;;;3.63;;
28447;SDS011;15675;52.870;-1.416;2023-06-14T09:51:22;9.20;;;3.67;;
28447;SDS011;15675;52.870;-1.416;2023-06-14T09:53:48;10.85;;;2.90;;
28447;SDS011;15675;52.870;-1.416;2023-06-14T09:56:36;10.13;;;3.20;;
28447;SDS011;15675;52.870;-1.416;2023-06-14T09:59:04;9.48;;;3.38;;
28447;SDS011;15675;52.870;-1.416;2023-06-14T10:01:30;11.70;;;3.55;;
28447;SDS011;15675;52.870;-1.416;2023-06-14T10:04:04;8.95;;;2.95;;
28447;SDS011;15675;52.870;-1.416;2023-06-14T10:06:30;12.40;;;3.50;;
28447;SDS011;15675;52.870;-1.416;2023-06-14T10:08:57;14.50;;;3.17;;
28447;SDS011;15675;52.870;-1.416;2023-06-14T10:11:27;6.28;;;2.83;;
28447;SDS011;15675;52.870;-1.416;2023-06-14T10:13:53;10.68;;;3.22;;
28447;SDS011;15675;52.870;-1.416;2023-06-14T10:16:28;9.82;;;3.15;;
28447;SDS011;15675;52.870;-1.416;2023-06-14T10:22:04;8.25;;;2.75;;
28447;SDS011;15675;52.870;-1.416;2023-06-14T10:24:38;14.85;;;3.80;;
28447;SDS011;15675;52.870;-1.416;2023-06-14T10:27:07;9.45;;;2.60;;
28447;SDS011;15675;52.870;-1.416;2023-06-14T10:32:23;10.23;;;3.28;;
28447;SDS011;15675;52.870;-1.416;2023-06-14T10:34:54;8.50;;;2.70;;
28447;SDS011;15675;52.870;-1.416;2023-06-14T10:37:21;9.32;;;2.50;;
28447;SDS011;15675;52.870;-1.416;2023-06-14T10:39:46;9.60;;;2.75;;
28447;SDS011;15675;52.870;-1.416;2023-06-14T10:42:13;10.10;;;3.05;;
28447;SDS011;15675;52.870;-1.416;2023-06-14T10:44:40;9.43;;;3.47;;
28447;SDS011;15675;52.870;-1.416;2023-06-14T10:47:06;9.75;;;3.45;;
28447;SDS011;15675;52.870;-1.416;2023-06-14T10:52:10;7.95;;;3.25;;
28447;SDS011;15675;52.870;-1.416;2023-06-14T10:57:42;9.18;;;2.72;;
28447;SDS011;15675;52.870;-1.416;2023-06-14T11:00:17;8.02;;;2.63;;
28447;SDS011;15675;52.870;-1.416;2023-06-14T11:11:15;13.55;;;3.22;;
28447;SDS011;15675;52.870;-1.416;2023-06-14T11:13:43;5.53;;;2.30;;
28447;SDS011;15675;52.870;-1.416;2023-06-14T11:16:14;9.18;;;2.97;;
28447;SDS011;15675;52.870;-1.416;2023-06-14T11:18:40;7.30;;;3.45;;
28447;SDS011;15675;52.870;-1.416;2023-06-14T11:21:07;6.95;;;2.60;;
28447;SDS011;15675;52.870;-1.416;2023-06-14T11:23:34;7.60;;;2.55;;
28447;SDS011;15675;52.870;-1.416;2023-06-14T11:26:00;7.15;;;2.60;;
28447;SDS011;15675;52.870;-1.416;2023-06-14T11:28:47;6.50;;;2.55;;
28447;SDS011;15675;52.870;-1.416;2023-06-14T11:31:11;6.80;;;3.00;;
28447;SDS011;15675;52.870;-1.416;2023-06-14T11:33:37;5.22;;;2.80;;
28447;SDS011;15675;52.870;-1.416;2023-06-14T11:36:03;6.70;;;2.65;;
28447;SDS011;15675;52.870;-1.416;2023-06-14T11:38:30;8.95;;;2.35;;
28447;SDS011;15675;52.870;-1.416;2023-06-14T11:40:58;6.32;;;2.38;;
28447;SDS011;15675;52.870;-1.416;2023-06-14T11:43:25;10.18;;;2.33;;
28447;SDS011;15675;52.870;-1.416;2023-06-14T11:45:51;5.82;;;2.30;;
28447;SDS011;15675;52.870;-1.416;2023-06-14T11:48:18;5.57;;;2.22;;
28447;SDS011;15675;52.870;-1.416;2023-06-14T11:50:43;8.35;;;2.15;;
28447;SDS011;15675;52.870;-1.416;2023-06-14T11:53:09;6.93;;;2.17;;
28447;SDS011;15675;52.870;-1.416;2023-06-14T11:55:38;5.70;;;2.17;;
28447;SDS011;15675;52.870;-1.416;2023-06-14T11:58:05;10.13;;;2.80;;
28447;SDS011;15675;52.870;-1.416;2023-06-14T12:00:31;6.45;;;2.45;;
28447;SDS011;15675;52.870;-1.416;2023-06-14T12:02:57;5.32;;;2.65;;
28447;SDS011;15675;52.870;-1.416;2023-06-14T12:05:23;7.75;;;2.72;;
28447;SDS011;15675;52.870;-1.416;2023-06-14T12:07:57;7.30;;;2.90;;
28447;SDS011;15675;52.870;-1.416;2023-06-14T12:10:25;9.20;;;3.28;;
28447;SDS011;15675;52.870;-1.416;2023-06-14T12:12:50;7.53;;;2.60;;
28447;SDS011;15675;52.870;-1.416;2023-06-14T12:15:16;8.93;;;2.72;;
28447;SDS011;15675;52.870;-1.416;2023-06-14T12:17:42;6.85;;;2.65;;
28447;SDS011;15675;52.870;-1.416;2023-06-14T12:20:12;6.97;;;2.65;;
28447;SDS011;15675;52.870;-1.416;2023-06-14T12:22:56;3.83;;;1.90;;
28447;SDS011;15675;52.870;-1.416;2023-06-14T12:25:25;7.72;;;2.40;;
28447;SDS011;15675;52.870;-1.416;2023-06-14T12:27:53;7.50;;;1.80;;
28447;SDS011;15675;52.870;-1.416;2023-06-14T12:30:19;7.05;;;2.95;;
28447;SDS011;15675;52.870;-1.416;2023-06-14T12:32:45;8.35;;;2.47;;
28447;SDS011;15675;52.870;-1.416;2023-06-14T12:35:11;7.25;;;2.45;;
28447;SDS011;15675;52.870;-1.416;2023-06-14T12:37:36;7.38;;;2.60;;
28447;SDS011;15675;52.870;-1.416;2023-06-14T12:40:02;6.70;;;2.70;;
28447;SDS011;15675;52.870;-1.416;2023-06-14T12:42:32;5.10;;;2.10;;
28447;SDS011;15675;52.870;-1.416;2023-06-14T12:44:59;7.38;;;2.65;;
28447;SDS011;15675;52.870;-1.416;2023-06-14T12:47:25;4.93;;;2.55;;
28447;SDS011;15675;52.870;-1.416;2023-06-14T12:49:50;7.85;;;2.40;;
28447;SDS011;15675;52.870;-1.416;2023-06-14T12:52:16;6.32;;;2.78;;
28447;SDS011;15675;52.870;-1.416;2023-06-14T12:54:42;3.95;;;2.22;;
28447;SDS011;15675;52.870;-1.416;2023-06-14T12:57:07;8.27;;;2.42;;
28447;SDS011;15675;52.870;-1.416;2023-06-14T12:59:33;6.38;;;2.28;;
28447;SDS011;15675;52.870;-1.416;2023-06-14T13:02:19;4.80;;;2.22;;
28447;SDS011;15675;52.870;-1.416;2023-06-14T13:04:47;6.15;;;2.53;;
28447;SDS011;15675;52.870;-1.416;2023-06-14T13:07:13;7.30;;;2.30;;
28447;SDS011;15675;52.870;-1.416;2023-06-14T13:09:40;8.98;;;2.85;;
28447;SDS011;15675;52.870;-1.416;2023-06-14T13:12:06;9.30;;;2.40;;
28447;SDS011;15675;52.870;-1.416;2023-06-14T13:14:33;7.50;;;2.78;;
28447;SDS011;15675;52.870;-1.416;2023-06-14T13:16:58;5.85;;;2.38;;
28447;SDS011;15675;52.870;-1.416;2023-06-14T13:19:24;12.02;;;3.03;;
28447;SDS011;15675;52.870;-1.416;2023-06-14T13:21:50;6.70;;;2.40;;
28447;SDS011;15675;52.870;-1.416;2023-06-14T13:24:15;8.52;;;2.50;;
28447;SDS011;15675;52.870;-1.416;2023-06-14T13:26:41;5.25;;;2.22;;
28447;SDS011;15675;52.870;-1.416;2023-06-14T13:29:07;4.97;;;2.20;;
28447;SDS011;15675;52.870;-1.416;2023-06-14T13:31:32;8.45;;;2.58;;
28447;SDS011;15675;52.870;-1.416;2023-06-14T13:33:58;12.95;;;2.85;;
28447;SDS011;15675;52.870;-1.416;2023-06-14T13:36:23;5.05;;;2.33;;
28447;SDS011;15675;52.870;-1.416;2023-06-14T13:38:49;8.32;;;2.83;;
28447;SDS011;15675;52.870;-1.416;2023-06-14T13:41:16;8.27;;;2.58;;
28447;SDS011;15675;52.870;-1.416;2023-06-14T13:43:42;6.93;;;2.55;;
28447;SDS011;15675;52.870;-1.416;2023-06-14T13:46:07;6.05;;;2.80;;
28447;SDS011;15675;52.870;-1.416;2023-06-14T13:48:33;6.63;;;3.13;;
28447;SDS011;15675;52.870;-1.416;2023-06-14T13:50:59;5.50;;;2.42;;
28447;SDS011;15675;52.870;-1.416;2023-06-14T13:53:25;4.65;;;2.70;;
28447;SDS011;15675;52.870;-1.416;2023-06-14T13:55:51;6.55;;;2.10;;
28447;SDS011;15675;52.870;-1.416;2023-06-14T13:58:17;7.32;;;2.92;;
28447;SDS011;15675;52.870;-1.416;2023-06-14T14:00:44;11.20;;;2.80;;
28447;SDS011;15675;52.870;-1.416;2023-06-14T14:03:10;9.13;;;2.75;;
28447;SDS011;15675;52.870;-1.416;2023-06-14T14:05:36;4.97;;;2.63;;
28447;SDS011;15675;52.870;-1.416;2023-06-14T14:08:02;5.53;;;2.80;;
28447;SDS011;15675;52.870;-1.416;2023-06-14T14:10:29;5.82;;;2.28;;
28447;SDS011;15675;52.870;-1.416;2023-06-14T14:12:54;6.90;;;3.20;;
28447;SDS011;15675;52.870;-1.416;2023-06-14T14:15:20;11.07;;;3.10;;
28447;SDS011;15675;52.870;-1.416;2023-06-14T14:17:45;8.55;;;2.95;;
28447;SDS011;15675;52.870;-1.416;2023-06-14T14:20:12;8.80;;;2.50;;
28447;SDS011;15675;52.870;-1.416;2023-06-14T14:22:40;9.10;;;3.10;;
28447;SDS011;15675;52.870;-1.416;2023-06-14T14:25:06;8.85;;;3.47;;
28447;SDS011;15675;52.870;-1.416;2023-06-14T14:27:33;10.55;;;3.40;;
28447;SDS011;15675;52.870;-1.416;2023-06-14T14:29:58;7.38;;;2.83;;
28447;SDS011;15675;52.870;-1.416;2023-06-14T14:32:24;6.90;;;3.00;;
28447;SDS011;15675;52.870;-1.416;2023-06-14T14:34:49;9.00;;;2.88;;
28447;SDS011;15675;52.870;-1.416;2023-06-14T14:37:15;8.32;;;2.58;;
28447;SDS011;15675;52.870;-1.416;2023-06-14T14:39:41;10.57;;;3.53;;
28447;SDS011;15675;52.870;-1.416;2023-06-14T14:42:07;6.18;;;2.58;;
28447;SDS011;15675;52.870;-1.416;2023-06-14T14:44:33;6.05;;;2.70;;
28447;SDS011;15675;52.870;-1.416;2023-06-14T14:46:58;7.30;;;2.50;;
28447;SDS011;15675;52.870;-1.416;2023-06-14T14:49:24;6.00;;;2.83;;
28447;SDS011;15675;52.870;-1.416;2023-06-14T14:51:49;8.52;;;3.08;;
28447;SDS011;15675;52.870;-1.416;2023-06-14T14:54:15;6.20;;;2.70;;
28447;SDS011;15675;52.870;-1.416;2023-06-14T14:56:40;5.20;;;2.10;;